Aviation Digital Data Service (ADDS)

Output produced by METARs form (2056 UTC 29 May 2017)
found at http://www.aviationweather.gov/adds/metars/
 
TAF WPDL 291717Z 2918/3006 15005KT CAVOK 
     FM300000 04010KT CAVOK